createdAt,value
2023-03-01T00:00:01.639Z,100173.87
2023-03-01T00:03:06.399Z,100171.91
2023-03-01T00:06:13.188Z,100174.03
2023-03-01T00:09:20.250Z,100178.31
2023-03-01T00:12:26.623Z,100178.14
2023-03-01T00:15:32.914Z,100176.01
2023-03-01T00:18:37.746Z,100175.29
2023-03-01T00:21:44.775Z,100174.77
2023-03-01T00:24:51.325Z,100177.08
2023-03-01T00:27:58.128Z,100171.45
2023-03-01T00:31:08.920Z,100163.83
2023-03-01T00:34:15.299Z,100161.63
2023-03-01T00:37:22.078Z,100163.59
2023-03-01T00:40:28.342Z,100164.33
2023-03-01T00:43:37.784Z,100160.08
2023-03-01T00:46:44.257Z,100150.65
2023-03-01T00:49:48.834Z,100149.63
2023-03-01T00:52:58.087Z,100154.17
2023-03-01T00:56:05.056Z,100151.08
2023-03-01T00:59:11.579Z,100143.00
2023-03-01T01:02:17.937Z,100146.77
2023-03-01T01:05:22.578Z,100144.00
2023-03-01T01:08:29.100Z,100144.16
2023-03-01T01:11:37.407Z,100141.41
2023-03-01T01:14:43.851Z,100139.69
2023-03-01T01:17:50.306Z,100135.23
2023-03-01T01:20:56.584Z,100134.91
2023-03-01T01:24:01.234Z,100132.35
2023-03-01T01:27:08.373Z,100128.45
2023-03-01T01:30:16.268Z,100123.61
2023-03-01T01:33:22.607Z,100120.44
2023-03-01T01:36:27.361Z,100115.79
2023-03-01T01:39:33.706Z,100118.98
2023-03-01T01:42:38.382Z,100121.06
2023-03-01T01:45:46.283Z,100116.24
2023-03-01T01:48:56.314Z,100104.55
2023-03-01T01:52:08.155Z,100099.48
2023-03-01T01:55:18.475Z,100098.42
2023-03-01T01:58:26.247Z,100094.33
2023-03-01T02:01:32.696Z,100085.39
2023-03-01T02:04:39.240Z,100092.55
2023-03-01T02:07:46.905Z,100100.37
2023-03-01T02:10:55.183Z,100099.19
2023-03-01T02:14:01.622Z,100094.76
2023-03-01T02:17:07.931Z,100101.11
2023-03-01T02:20:17.640Z,100098.89
2023-03-01T02:23:24.619Z,100100.81
2023-03-01T02:26:38.021Z,100096.20
2023-03-01T02:29:45.032Z,100096.27
2023-03-01T02:32:53.384Z,100097.90
2023-03-01T02:36:01.902Z,100096.11
2023-03-01T02:39:15.611Z,100101.35
2023-03-01T02:42:28.262Z,100106.14
2023-03-01T02:45:34.677Z,100105.33
2023-03-01T02:48:50.693Z,100104.79
2023-03-01T02:52:22.996Z,100099.85
2023-03-01T02:55:30.080Z,100094.44
2023-03-01T02:58:41.746Z,100094.98
2023-03-01T03:01:48.147Z,100091.51
2023-03-01T03:04:54.580Z,100094.91
2023-03-01T03:08:02.214Z,100103.33
2023-03-01T03:11:08.694Z,100101.85
2023-03-01T03:14:17.055Z,100101.88
2023-03-01T03:17:23.442Z,100105.85
2023-03-01T03:20:32.844Z,100112.27
2023-03-01T03:23:39.378Z,100112.14
2023-03-01T03:26:45.726Z,100105.13
2023-03-01T03:29:52.291Z,100101.39
2023-03-01T03:33:00.179Z,100103.75
2023-03-01T03:36:07.605Z,100102.09
2023-03-01T03:39:14.007Z,100101.31
2023-03-01T03:42:20.351Z,100106.00
2023-03-01T03:45:26.788Z,100101.56
2023-03-01T03:48:33.065Z,100095.39
2023-03-01T03:51:37.671Z,100090.49
2023-03-01T03:54:44.096Z,100088.36
2023-03-01T03:57:52.728Z,100085.81
2023-03-01T04:01:00.249Z,100082.73
2023-03-01T04:04:09.007Z,100086.64
2023-03-01T04:07:15.273Z,100090.10
2023-03-01T04:10:20.281Z,100091.98
2023-03-01T04:13:26.730Z,100097.44
2023-03-01T04:16:33.364Z,100101.08
2023-03-01T04:19:39.932Z,100099.37
2023-03-01T04:22:44.486Z,100096.27
2023-03-01T04:25:55.196Z,100101.59
2023-03-01T04:29:01.431Z,100097.18
2023-03-01T04:32:06.296Z,100095.75
2023-03-01T04:35:13.246Z,100100.91
2023-03-01T04:38:19.666Z,100098.65
2023-03-01T04:41:27.118Z,100094.55
2023-03-01T04:44:33.534Z,100100.54
2023-03-01T04:47:39.798Z,100107.82
2023-03-01T04:50:44.428Z,100103.32
2023-03-01T04:53:51.286Z,100102.51
2023-03-01T04:56:57.800Z,100098.66
2023-03-01T05:00:20.899Z,100093.73
2023-03-01T05:03:27.720Z,100086.54
2023-03-01T05:06:34.020Z,100083.16
2023-03-01T05:09:39.456Z,100083.73
2023-03-01T05:12:45.714Z,100085.95
2023-03-01T05:15:51.292Z,100077.24
2023-03-01T05:18:57.842Z,100073.64
2023-03-01T05:22:04.830Z,100072.89
2023-03-01T05:25:11.816Z,100070.56
2023-03-01T05:28:17.982Z,100070.39
2023-03-01T05:31:24.212Z,100065.00
2023-03-01T05:34:29.289Z,100064.43
2023-03-01T05:37:36.851Z,100068.86
2023-03-01T05:40:44.689Z,100072.55
2023-03-01T05:43:50.873Z,100071.08
2023-03-01T05:46:57.615Z,100076.19
2023-03-01T05:50:03.942Z,100076.85
2023-03-01T05:53:12.673Z,100080.45
2023-03-01T05:56:18.933Z,100079.11
2023-03-01T05:59:23.506Z,100085.16
2023-03-01T06:02:30.330Z,100087.80
2023-03-01T06:05:36.703Z,100091.37
2023-03-01T06:08:42.921Z,100088.56
2023-03-01T06:11:49.165Z,100084.21
2023-03-01T06:14:53.717Z,100085.43
2023-03-01T06:18:00.566Z,100081.02
2023-03-01T06:21:08.385Z,100084.90
2023-03-01T06:24:14.648Z,100092.36
2023-03-01T06:27:19.158Z,100087.95
2023-03-01T06:30:27.616Z,100085.77
2023-03-01T06:33:33.897Z,100081.93
2023-03-01T06:36:38.498Z,100082.55
2023-03-01T06:39:44.696Z,100084.55
2023-03-01T06:42:51.215Z,100089.92
2023-03-01T06:45:57.731Z,100092.42
2023-03-01T06:49:05.597Z,100089.27
2023-03-01T06:52:11.859Z,100088.36
2023-03-01T06:55:16.465Z,100080.72
2023-03-01T06:58:22.756Z,100081.51
2023-03-01T07:01:27.262Z,100082.89
2023-03-01T07:04:33.490Z,100087.64
2023-03-01T07:07:38.006Z,100087.09
2023-03-01T07:10:44.435Z,100087.31
2023-03-01T07:13:50.676Z,100082.17
2023-03-01T07:16:55.321Z,100072.71
2023-03-01T07:20:01.653Z,100064.26
2023-03-01T07:23:09.733Z,100059.91
2023-03-01T07:26:15.936Z,100051.62
2023-03-01T07:29:22.335Z,100043.25
2023-03-01T07:32:28.703Z,100036.33
2023-03-01T07:35:35.022Z,100031.84
2023-03-01T07:38:39.618Z,100028.41
2023-03-01T07:41:45.962Z,100024.39
2023-03-01T07:44:50.411Z,100014.60
2023-03-01T07:47:56.916Z,100009.85
2023-03-01T07:51:04.566Z,100015.10
2023-03-01T07:54:11.258Z,100013.73
2023-03-01T07:57:17.552Z,100012.27
2023-03-01T08:00:22.636Z,100015.31
2023-03-01T08:03:28.911Z,100024.83
2023-03-01T08:06:33.574Z,100032.19
2023-03-01T08:09:40.281Z,100039.73
2023-03-01T08:12:46.580Z,100036.85
2023-03-01T08:15:51.280Z,100039.52
2023-03-01T08:19:01.694Z,100040.94
2023-03-01T08:22:07.955Z,100040.09
2023-03-01T08:25:12.767Z,100030.33
2023-03-01T08:28:19.417Z,100021.92
2023-03-01T08:31:27.847Z,100017.02
2023-03-01T08:34:36.688Z,100012.36
2023-03-01T08:37:42.975Z,100004.11
2023-03-01T08:40:47.456Z,99995.27
2023-03-01T08:43:53.889Z,99994.59
2023-03-01T08:47:01.055Z,99990.35
2023-03-01T08:50:08.882Z,99991.67
2023-03-01T08:53:15.316Z,99987.98
2023-03-01T08:56:22.364Z,99987.66
2023-03-01T08:59:30.616Z,99989.17
2023-03-01T09:02:37.474Z,99991.69
2023-03-01T09:05:43.827Z,99996.04
2023-03-01T09:08:48.987Z,99997.86
2023-03-01T09:11:55.221Z,99997.00
2023-03-01T09:15:01.528Z,99989.52
2023-03-01T09:18:06.014Z,99988.49
2023-03-01T09:21:14.579Z,99990.05
2023-03-01T09:24:21.722Z,99992.73
2023-03-01T09:27:28.100Z,99986.63
2023-03-01T09:30:32.912Z,99985.33
2023-03-01T09:33:39.168Z,99983.27
2023-03-01T09:36:45.465Z,99980.41
2023-03-01T09:39:50.026Z,99977.33
2023-03-01T09:43:03.548Z,99976.56
2023-03-01T09:46:15.093Z,99981.84
2023-03-01T09:49:23.531Z,99983.02
2023-03-01T09:52:38.767Z,99982.48
2023-03-01T09:55:51.259Z,99985.00
2023-03-01T09:59:01.559Z,99983.46
2023-03-01T10:02:24.058Z,99980.86
2023-03-01T10:05:49.641Z,99975.08
2023-03-01T10:09:00.574Z,99971.63
2023-03-01T10:12:11.459Z,99972.10
2023-03-01T10:15:22.310Z,99970.18
2023-03-01T10:18:33.793Z,99964.81
2023-03-01T10:21:47.040Z,99966.02
2023-03-01T10:24:55.123Z,99966.86
2023-03-01T10:28:12.870Z,99964.73
2023-03-01T10:31:23.361Z,99956.38
2023-03-01T10:34:34.434Z,99954.48
2023-03-01T10:38:00.308Z,99947.52
2023-03-01T10:41:09.525Z,99947.04
2023-03-01T10:44:40.247Z,99943.62
2023-03-01T10:47:46.465Z,99940.14
2023-03-01T10:51:07.140Z,99936.61
2023-03-01T10:54:21.933Z,99939.27
2023-03-01T10:57:40.057Z,99934.14
2023-03-01T11:00:56.046Z,99930.33
2023-03-01T11:04:16.327Z,99928.35
2023-03-01T11:07:22.546Z,99927.69
2023-03-01T11:10:30.407Z,99925.30
2023-03-01T11:13:39.011Z,99925.02
2023-03-01T11:16:48.308Z,99923.69
2023-03-01T11:20:09.117Z,99920.94
2023-03-01T11:23:17.617Z,99918.27
2023-03-01T11:26:24.524Z,99917.89
2023-03-01T11:29:47.729Z,99914.44
2023-03-01T11:33:05.436Z,99911.44
2023-03-01T11:36:20.468Z,99907.39
2023-03-01T11:39:33.600Z,99902.41
2023-03-01T11:42:51.325Z,99899.21
2023-03-01T11:46:17.713Z,99895.48
2023-03-01T11:49:51.884Z,99892.48
2023-03-01T11:53:12.126Z,99886.86
2023-03-01T11:56:29.095Z,99885.01
2023-03-01T11:59:55.775Z,99885.02
2023-03-01T12:03:32.545Z,99878.41
2023-03-01T12:06:56.054Z,99868.68
2023-03-01T12:10:23.300Z,99870.21
2023-03-01T12:13:52.020Z,99865.40
2023-03-01T12:17:25.438Z,99852.73
2023-03-01T12:20:39.107Z,99847.14
2023-03-01T12:24:21.881Z,99844.20
2023-03-01T12:27:56.325Z,99847.05
2023-03-01T12:31:44.424Z,99839.88
2023-03-01T12:35:15.842Z,99839.41
2023-03-01T12:38:36.355Z,99836.86
2023-03-01T12:42:00.824Z,99833.58
2023-03-01T12:45:41.727Z,99835.33
2023-03-01T12:48:59.153Z,99837.95
2023-03-01T12:52:12.382Z,99835.15
2023-03-01T12:55:30.793Z,99829.79
2023-03-01T12:58:49.720Z,99828.95
2023-03-01T13:02:04.572Z,99826.66
2023-03-01T13:05:31.581Z,99819.05
2023-03-01T13:08:42.976Z,99812.98
2023-03-01T13:11:49.274Z,99814.15
2023-03-01T13:14:56.050Z,99814.88
2023-03-01T13:18:04.377Z,99812.02
2023-03-01T13:21:10.795Z,99811.81
2023-03-01T13:24:31.551Z,99807.34
2023-03-01T13:27:37.783Z,99803.89
2023-03-01T13:30:45.235Z,99802.63
2023-03-01T13:33:52.799Z,99802.80
2023-03-01T13:37:13.291Z,99803.52
2023-03-01T13:40:53.146Z,99801.02
2023-03-01T13:43:59.993Z,99796.39
2023-03-01T13:47:18.422Z,99795.05
2023-03-01T13:50:27.760Z,99792.09
2023-03-01T13:53:38.944Z,99789.65
2023-03-01T13:56:46.190Z,99788.00
2023-03-01T13:59:52.549Z,99787.02
2023-03-01T14:03:06.176Z,99783.65
2023-03-01T14:06:30.450Z,99777.60
2023-03-01T14:09:40.250Z,99771.33
2023-03-01T14:12:52.913Z,99768.52
2023-03-01T14:16:20.105Z,99762.57
2023-03-01T14:19:33.472Z,99762.85
2023-03-01T14:22:42.929Z,99762.70
2023-03-01T14:25:53.365Z,99762.61
2023-03-01T14:28:59.617Z,99764.08
2023-03-01T14:32:21.448Z,99763.52
2023-03-01T14:35:29.827Z,99759.00
2023-03-01T14:38:38.392Z,99754.08
2023-03-01T14:41:44.728Z,99749.10
2023-03-01T14:44:50.253Z,99751.15
2023-03-01T14:47:58.027Z,99753.77
2023-03-01T14:51:07.517Z,99755.64
2023-03-01T14:54:26.398Z,99756.90
2023-03-01T14:57:32.594Z,99759.74
2023-03-01T15:00:39.085Z,99749.41
2023-03-01T15:03:48.141Z,99751.52
2023-03-01T15:06:56.923Z,99751.05
2023-03-01T15:10:03.766Z,99753.35
2023-03-01T15:13:23.700Z,99758.71
2023-03-01T15:16:32.945Z,99760.09
2023-03-01T15:19:39.538Z,99756.73
2023-03-01T15:22:49.470Z,99751.19
2023-03-01T15:25:58.693Z,99749.41
2023-03-01T15:29:05.413Z,99748.73
2023-03-01T15:32:29.816Z,99748.31
2023-03-01T15:35:46.674Z,99752.77
2023-03-01T15:38:57.777Z,99754.88
2023-03-01T15:42:04.059Z,99756.83
2023-03-01T15:45:23.075Z,99754.10
2023-03-01T15:48:29.544Z,99755.36
2023-03-01T15:51:38.702Z,99749.21
2023-03-01T15:54:44.995Z,99745.77
2023-03-01T15:57:52.209Z,99749.52
2023-03-01T16:01:01.979Z,99753.23
2023-03-01T16:04:08.736Z,99756.38
2023-03-01T16:07:13.303Z,99757.55
2023-03-01T16:10:20.654Z,99756.01
2023-03-01T16:13:29.059Z,99759.30
2023-03-01T16:16:36.653Z,99757.69
2023-03-01T16:19:42.977Z,99758.89
2023-03-01T16:22:49.865Z,99763.06
2023-03-01T16:25:56.198Z,99767.58
2023-03-01T16:29:01.000Z,99767.80
2023-03-01T16:32:08.000Z,99772.46
2023-03-01T16:35:18.473Z,99779.19
2023-03-01T16:38:24.748Z,99777.91
2023-03-01T16:41:31.992Z,99778.14
2023-03-01T16:44:38.487Z,99776.01
2023-03-01T16:47:44.980Z,99778.50
2023-03-01T16:50:59.725Z,99781.65
2023-03-01T16:54:06.143Z,99785.48
2023-03-01T16:57:10.735Z,99788.99
2023-03-01T17:00:18.942Z,99789.73
2023-03-01T17:03:27.117Z,99792.48
2023-03-01T17:06:33.726Z,99796.09
2023-03-01T17:09:40.602Z,99797.77
2023-03-01T17:12:49.779Z,99795.59
2023-03-01T17:15:56.056Z,99796.71
2023-03-01T17:19:02.478Z,99800.53
2023-03-01T17:22:08.842Z,99802.70
2023-03-01T17:25:13.882Z,99809.05
2023-03-01T17:28:20.174Z,99814.06
2023-03-01T17:31:26.865Z,99814.76
2023-03-01T17:34:34.416Z,99814.48
2023-03-01T17:37:46.551Z,99814.54
2023-03-01T17:40:52.900Z,99811.91
2023-03-01T17:43:59.205Z,99816.32
2023-03-01T17:47:04.086Z,99813.33
2023-03-01T17:50:12.531Z,99813.36
2023-03-01T17:53:19.331Z,99818.95
2023-03-01T17:56:25.569Z,99820.27
2023-03-01T17:59:34.101Z,99825.01
2023-03-01T18:02:40.368Z,99827.11
2023-03-01T18:05:44.963Z,99825.27
2023-03-01T18:08:52.369Z,99825.61
2023-03-01T18:11:58.844Z,99823.84
2023-03-01T18:15:05.339Z,99820.39
2023-03-01T18:18:11.534Z,99820.19
2023-03-01T18:21:18.351Z,99816.73
2023-03-01T18:24:24.844Z,99814.83
2023-03-01T18:27:31.098Z,99812.26
2023-03-01T18:30:38.624Z,99815.05
2023-03-01T18:33:45.270Z,99818.25
2023-03-01T18:37:10.521Z,99810.36
2023-03-01T18:40:17.035Z,99803.45
2023-03-01T18:43:24.079Z,99799.64
2023-03-01T18:46:30.876Z,99797.80
2023-03-01T18:49:37.337Z,99797.66
2023-03-01T18:52:43.554Z,99800.14
2023-03-01T18:55:49.853Z,99799.14
2023-03-01T18:58:54.329Z,99799.07
2023-03-01T19:02:00.691Z,99795.20
2023-03-01T19:05:05.661Z,99790.18
2023-03-01T19:08:11.868Z,99789.86
2023-03-01T19:11:18.798Z,99791.55
2023-03-01T19:14:25.010Z,99794.38
2023-03-01T19:17:32.106Z,99796.74
2023-03-01T19:20:39.528Z,99799.59
2023-03-01T19:23:47.946Z,99797.89
2023-03-01T19:26:55.297Z,99799.02
2023-03-01T19:30:01.674Z,99795.31
2023-03-01T19:33:06.243Z,99796.11
2023-03-01T19:36:13.936Z,99794.92
2023-03-01T19:39:20.170Z,99790.89
2023-03-01T19:42:27.876Z,99788.22
2023-03-01T19:45:34.468Z,99785.63
2023-03-01T19:48:40.962Z,99786.10
2023-03-01T19:51:47.318Z,99789.54
2023-03-01T19:54:53.828Z,99791.02
2023-03-01T19:58:02.117Z,99793.81
2023-03-01T20:01:14.859Z,99796.61
2023-03-01T20:04:21.487Z,99797.48
2023-03-01T20:07:27.896Z,99803.31
2023-03-01T20:10:32.762Z,99807.74
2023-03-01T20:13:39.534Z,99805.42
2023-03-01T20:16:45.846Z,99799.76
2023-03-01T20:19:50.494Z,99804.71
2023-03-01T20:22:56.737Z,99803.02
2023-03-01T20:26:08.824Z,99801.71
2023-03-01T20:29:15.454Z,99798.45
2023-03-01T20:32:21.740Z,99800.75
2023-03-01T20:35:26.337Z,99798.16
2023-03-01T20:38:32.930Z,99791.96
2023-03-01T20:41:39.258Z,99790.39
2023-03-01T20:44:44.633Z,99790.80
2023-03-01T20:47:51.131Z,99792.66
2023-03-01T20:51:01.752Z,99790.38
2023-03-01T20:54:08.125Z,99795.19
2023-03-01T20:57:12.611Z,99802.45
2023-03-01T21:00:21.016Z,99800.64
2023-03-01T21:03:27.483Z,99796.01
2023-03-01T21:06:34.327Z,99795.84
2023-03-01T21:09:42.049Z,99795.88
2023-03-01T21:12:48.260Z,99795.23
2023-03-01T21:16:00.010Z,99798.59
2023-03-01T21:19:06.508Z,99801.16
2023-03-01T21:22:13.532Z,99801.13
2023-03-01T21:25:19.972Z,99806.16
2023-03-01T21:28:27.477Z,99807.07
2023-03-01T21:31:35.968Z,99803.11
2023-03-01T21:34:43.236Z,99799.89
2023-03-01T21:37:49.493Z,99805.29
2023-03-01T21:40:54.000Z,99800.84
2023-03-01T21:44:03.008Z,99798.13
2023-03-01T21:47:10.501Z,99798.03
2023-03-01T21:50:16.809Z,99794.84
2023-03-01T21:53:21.282Z,99798.49
2023-03-01T21:56:29.653Z,99795.01
2023-03-01T21:59:35.990Z,99791.08
2023-03-01T22:02:40.533Z,99797.71
2023-03-01T22:05:55.120Z,99797.48
2023-03-01T22:09:04.761Z,99798.54
2023-03-01T22:12:11.268Z,99794.44
2023-03-01T22:15:17.565Z,99793.91
2023-03-01T22:18:22.171Z,99792.37
2023-03-01T22:21:28.651Z,99793.44
2023-03-01T22:24:34.876Z,99789.13
2023-03-01T22:27:41.489Z,99787.41
2023-03-01T22:30:47.757Z,99786.48
2023-03-01T22:33:52.295Z,99786.31
2023-03-01T22:36:58.741Z,99784.52
2023-03-01T22:40:05.887Z,99789.81
2023-03-01T22:43:12.084Z,99789.90
2023-03-01T22:46:19.985Z,99789.23
2023-03-01T22:49:26.456Z,99789.19
2023-03-01T22:52:32.709Z,99786.61
2023-03-01T22:55:39.417Z,99784.15
2023-03-01T22:58:46.217Z,99786.30
2023-03-01T23:01:53.363Z,99786.14
2023-03-01T23:05:00.063Z,99782.64
2023-03-01T23:08:06.520Z,99781.79
2023-03-01T23:11:16.111Z,99785.70
2023-03-01T23:14:22.939Z,99782.20
2023-03-01T23:17:29.217Z,99774.98
2023-03-01T23:20:36.514Z,99773.73
2023-03-01T23:23:43.609Z,99769.61
2023-03-01T23:26:53.513Z,99771.42
2023-03-01T23:29:59.908Z,99770.92
2023-03-01T23:33:04.396Z,99771.69
2023-03-01T23:36:18.906Z,99767.31
2023-03-01T23:39:25.815Z,99765.27
2023-03-01T23:42:32.182Z,99768.64
2023-03-01T23:45:43.070Z,99774.33
2023-03-01T23:48:49.733Z,99777.97
2023-03-01T23:51:55.960Z,99775.34
2023-03-01T23:55:03.045Z,99775.59
2023-03-01T23:58:09.420Z,99773.31
